Saint Louis, Missouri
Current Conditions -  °F | °C
As of 7:53 AM on Thursday 27 Nov 2014 (Local Time) from KCPS Reporting Station
Haze Haze  
Wind Chill: 18°   Ceiling: 1600
Heat Index: 31°   Visibility: 6mi
Dew Point: 25°   Wind: 22mph
Humidity: 79%   Direction: 300°WNW
Pressure: 30.46"   Gusts: 28mph
Location:  38.63°N, 90.24°W
Report Text: KCPS 271353Z 30019G24KT 6SM HZ OVC016 M01/M04 A3046 RMK AO2 SLP318 T10061039
Loading
Personal Weather Stations






























Interactive Weather Map New forecast layout! Learn more

10-Day Weather Forecast

Advertisements
Track Severe Weather on mobile